sensor_id;sensor_type;location;lat;lon;timestamp;pressure;altitude;pressure_sealevel;temperature;humidity
42411;BME280;28056;51.112;0.984;2022-08-03T00:00:57;100674.19;;;20.08;57.72
42411;BME280;28056;51.112;0.984;2022-08-03T00:04:46;100673.37;;;19.84;56.95
42411;BME280;28056;51.112;0.984;2022-08-03T00:07:14;100672.25;;;20.31;57.04
42411;BME280;28056;51.112;0.984;2022-08-03T00:09:42;100662.54;;;20.37;55.65
42411;BME280;28056;51.112;0.984;2022-08-03T00:12:10;100662.67;;;20.48;56.13
42411;BME280;28056;51.112;0.984;2022-08-03T00:14:37;100665.24;;;18.91;60.11
42411;BME280;28056;51.112;0.984;2022-08-03T00:17:05;100665.38;;;19.77;58.13
42411;BME280;28056;51.112;0.984;2022-08-03T00:19:32;100663.46;;;20.07;57.47
42411;BME280;28056;51.112;0.984;2022-08-03T00:22:00;100661.49;;;20.28;56.59
42411;BME280;28056;51.112;0.984;2022-08-03T00:24:27;100660.76;;;20.01;57.67
42411;BME280;28056;51.112;0.984;2022-08-03T00:26:54;100660.72;;;20.08;57.79
42411;BME280;28056;51.112;0.984;2022-08-03T00:29:21;100656.32;;;20.11;57.36
42411;BME280;28056;51.112;0.984;2022-08-03T00:31:49;100651.32;;;19.13;60.08
42411;BME280;28056;51.112;0.984;2022-08-03T00:34:16;100647.60;;;19.81;58.54
42411;BME280;28056;51.112;0.984;2022-08-03T00:36:43;100648.67;;;20.26;57.66
42411;BME280;28056;51.112;0.984;2022-08-03T00:39:11;100644.03;;;19.54;58.61
42411;BME280;28056;51.112;0.984;2022-08-03T00:41:38;100644.14;;;20.13;57.78
42411;BME280;28056;51.112;0.984;2022-08-03T00:44:06;100639.49;;;19.46;59.09
42411;BME280;28056;51.112;0.984;2022-08-03T00:46:33;100643.71;;;20.01;58.06
42411;BME280;28056;51.112;0.984;2022-08-03T00:49:01;100635.02;;;19.31;59.32
42411;BME280;28056;51.112;0.984;2022-08-03T00:51:29;100631.93;;;18.72;61.26
42411;BME280;28056;51.112;0.984;2022-08-03T00:53:56;100627.97;;;19.49;59.16
42411;BME280;28056;51.112;0.984;2022-08-03T00:56:23;100620.78;;;20.17;57.04
42411;BME280;28056;51.112;0.984;2022-08-03T00:58:53;100624.15;;;19.94;58.11
42411;BME280;28056;51.112;0.984;2022-08-03T01:01:22;100623.37;;;19.18;59.34
42411;BME280;28056;51.112;0.984;2022-08-03T01:03:50;100621.16;;;19.85;58.23
42411;BME280;28056;51.112;0.984;2022-08-03T01:06:22;100612.08;;;19.19;58.95
42411;BME280;28056;51.112;0.984;2022-08-03T01:08:53;100613.72;;;19.77;58.90
42411;BME280;28056;51.112;0.984;2022-08-03T01:11:31;100608.68;;;19.67;59.74
42411;BME280;28056;51.112;0.984;2022-08-03T01:14:05;100608.70;;;19.81;58.36
42411;BME280;28056;51.112;0.984;2022-08-03T01:16:38;100601.76;;;19.77;58.40
42411;BME280;28056;51.112;0.984;2022-08-03T01:19:25;100602.51;;;19.04;60.57
42411;BME280;28056;51.112;0.984;2022-08-03T01:22:07;100604.34;;;19.51;59.70
42411;BME280;28056;51.112;0.984;2022-08-03T01:24:46;100596.52;;;19.57;59.41
42411;BME280;28056;51.112;0.984;2022-08-03T01:27:20;100595.39;;;19.55;60.34
42411;BME280;28056;51.112;0.984;2022-08-03T01:29:56;100593.40;;;19.65;58.94
42411;BME280;28056;51.112;0.984;2022-08-03T01:32:32;100591.51;;;20.09;58.50
42411;BME280;28056;51.112;0.984;2022-08-03T01:35:03;100590.46;;;19.18;60.17
42411;BME280;28056;51.112;0.984;2022-08-03T01:37:38;100592.79;;;19.57;59.41
42411;BME280;28056;51.112;0.984;2022-08-03T01:40:07;100592.18;;;18.93;61.07
42411;BME280;28056;51.112;0.984;2022-08-03T01:42:39;100591.27;;;18.91;62.15
42411;BME280;28056;51.112;0.984;2022-08-03T01:45:11;100592.32;;;18.75;62.55
42411;BME280;28056;51.112;0.984;2022-08-03T01:47:40;100596.28;;;18.39;63.41
42411;BME280;28056;51.112;0.984;2022-08-03T01:50:10;100595.18;;;18.93;62.31
42411;BME280;28056;51.112;0.984;2022-08-03T01:52:39;100602.89;;;18.29;63.92
42411;BME280;28056;51.112;0.984;2022-08-03T01:55:11;100601.46;;;18.80;62.82
42411;BME280;28056;51.112;0.984;2022-08-03T01:57:41;100597.43;;;19.12;61.73
42411;BME280;28056;51.112;0.984;2022-08-03T02:00:11;100597.71;;;19.07;61.75
42411;BME280;28056;51.112;0.984;2022-08-03T02:02:41;100599.69;;;18.31;62.80
42411;BME280;28056;51.112;0.984;2022-08-03T02:05:10;100598.05;;;18.98;61.99
42411;BME280;28056;51.112;0.984;2022-08-03T02:07:40;100599.18;;;19.00;62.18
42411;BME280;28056;51.112;0.984;2022-08-03T02:10:10;100599.80;;;18.74;62.45
42411;BME280;28056;51.112;0.984;2022-08-03T02:12:39;100602.12;;;19.61;60.67
42411;BME280;28056;51.112;0.984;2022-08-03T02:15:10;100602.88;;;19.13;61.23
42411;BME280;28056;51.112;0.984;2022-08-03T02:17:39;100602.56;;;19.37;60.77
42411;BME280;28056;51.112;0.984;2022-08-03T02:20:10;100599.52;;;19.36;61.27
42411;BME280;28056;51.112;0.984;2022-08-03T02:22:40;100591.30;;;19.42;60.87
42411;BME280;28056;51.112;0.984;2022-08-03T02:25:10;100585.94;;;19.28;61.28
42411;BME280;28056;51.112;0.984;2022-08-03T02:27:42;100587.16;;;19.32;60.41
42411;BME280;28056;51.112;0.984;2022-08-03T02:30:13;100585.04;;;19.43;61.14
42411;BME280;28056;51.112;0.984;2022-08-03T02:32:45;100583.50;;;19.39;59.93
42411;BME280;28056;51.112;0.984;2022-08-03T02:35:16;100576.63;;;18.60;62.71
42411;BME280;28056;51.112;0.984;2022-08-03T02:37:49;100576.71;;;19.01;61.21
42411;BME280;28056;51.112;0.984;2022-08-03T02:40:19;100572.92;;;19.13;61.17
42411;BME280;28056;51.112;0.984;2022-08-03T02:42:52;100568.91;;;18.80;61.86
42411;BME280;28056;51.112;0.984;2022-08-03T02:45:24;100576.90;;;18.73;62.49
42411;BME280;28056;51.112;0.984;2022-08-03T02:47:57;100574.70;;;18.05;63.46
42411;BME280;28056;51.112;0.984;2022-08-03T02:50:27;100569.60;;;18.28;63.64
42411;BME280;28056;51.112;0.984;2022-08-03T02:52:56;100568.69;;;18.35;63.55
42411;BME280;28056;51.112;0.984;2022-08-03T02:55:25;100569.17;;;18.37;63.56
42411;BME280;28056;51.112;0.984;2022-08-03T02:57:55;100567.17;;;17.86;64.56
42411;BME280;28056;51.112;0.984;2022-08-03T03:00:23;100567.32;;;19.12;61.57
42411;BME280;28056;51.112;0.984;2022-08-03T03:02:52;100568.44;;;18.35;64.22
42411;BME280;28056;51.112;0.984;2022-08-03T03:05:20;100570.16;;;18.41;63.69
42411;BME280;28056;51.112;0.984;2022-08-03T03:07:47;100568.85;;;18.93;62.16
42411;BME280;28056;51.112;0.984;2022-08-03T03:10:16;100573.55;;;18.79;62.62
42411;BME280;28056;51.112;0.984;2022-08-03T03:12:44;100575.53;;;18.90;61.78
42411;BME280;28056;51.112;0.984;2022-08-03T03:15:12;100575.31;;;18.98;62.25
42411;BME280;28056;51.112;0.984;2022-08-03T03:17:41;100574.71;;;19.17;62.42
42411;BME280;28056;51.112;0.984;2022-08-03T03:20:10;100574.34;;;18.98;62.15
42411;BME280;28056;51.112;0.984;2022-08-03T03:22:39;100573.67;;;18.37;63.62
42411;BME280;28056;51.112;0.984;2022-08-03T03:25:08;100571.33;;;19.41;61.19
42411;BME280;28056;51.112;0.984;2022-08-03T03:27:36;100574.15;;;18.33;63.66
42411;BME280;28056;51.112;0.984;2022-08-03T03:30:04;100576.99;;;18.88;62.42
42411;BME280;28056;51.112;0.984;2022-08-03T03:32:32;100577.12;;;18.59;62.95
42411;BME280;28056;51.112;0.984;2022-08-03T03:35:00;100569.73;;;18.79;63.11
42411;BME280;28056;51.112;0.984;2022-08-03T03:37:28;100570.64;;;19.24;61.56
42411;BME280;28056;51.112;0.984;2022-08-03T03:39:56;100569.21;;;18.71;63.10
42411;BME280;28056;51.112;0.984;2022-08-03T03:42:24;100569.20;;;18.72;63.02
42411;BME280;28056;51.112;0.984;2022-08-03T03:44:52;100567.59;;;19.20;61.51
42411;BME280;28056;51.112;0.984;2022-08-03T03:47:19;100569.41;;;18.76;63.35
42411;BME280;28056;51.112;0.984;2022-08-03T03:49:47;100567.47;;;18.62;62.52
42411;BME280;28056;51.112;0.984;2022-08-03T03:52:15;100566.37;;;19.01;62.27
42411;BME280;28056;51.112;0.984;2022-08-03T03:54:44;100564.80;;;19.25;62.32
42411;BME280;28056;51.112;0.984;2022-08-03T03:57:11;100567.39;;;19.13;62.19
42411;BME280;28056;51.112;0.984;2022-08-03T03:59:39;100571.26;;;19.42;61.68
42411;BME280;28056;51.112;0.984;2022-08-03T04:02:08;100570.56;;;18.11;64.04
42411;BME280;28056;51.112;0.984;2022-08-03T04:04:36;100576.20;;;18.89;62.14
42411;BME280;28056;51.112;0.984;2022-08-03T04:07:04;100573.58;;;19.28;60.96
42411;BME280;28056;51.112;0.984;2022-08-03T04:09:33;100577.71;;;19.26;60.61
42411;BME280;28056;51.112;0.984;2022-08-03T04:12:01;100578.51;;;19.71;59.88
42411;BME280;28056;51.112;0.984;2022-08-03T04:14:32;100579.11;;;18.91;61.41
42411;BME280;28056;51.112;0.984;2022-08-03T04:17:03;100580.79;;;18.31;63.78
42411;BME280;28056;51.112;0.984;2022-08-03T04:19:35;100580.41;;;18.50;62.74
42411;BME280;28056;51.112;0.984;2022-08-03T04:22:05;100584.75;;;18.71;62.31
42411;BME280;28056;51.112;0.984;2022-08-03T04:24:38;100589.63;;;18.30;63.55
42411;BME280;28056;51.112;0.984;2022-08-03T04:27:08;100587.44;;;18.14;63.51
42411;BME280;28056;51.112;0.984;2022-08-03T04:29:37;100587.88;;;18.83;61.76
42411;BME280;28056;51.112;0.984;2022-08-03T04:32:05;100585.72;;;19.29;60.13
42411;BME280;28056;51.112;0.984;2022-08-03T04:34:34;100587.72;;;18.88;61.34
42411;BME280;28056;51.112;0.984;2022-08-03T04:37:08;100582.30;;;18.51;63.39
42411;BME280;28056;51.112;0.984;2022-08-03T04:39:37;100580.30;;;19.04;61.23
42411;BME280;28056;51.112;0.984;2022-08-03T04:42:06;100583.13;;;19.68;59.51
42411;BME280;28056;51.112;0.984;2022-08-03T04:44:38;100581.39;;;19.54;59.74
42411;BME280;28056;51.112;0.984;2022-08-03T04:47:06;100583.28;;;19.57;60.05
42411;BME280;28056;51.112;0.984;2022-08-03T04:49:35;100583.81;;;19.61;59.01
42411;BME280;28056;51.112;0.984;2022-08-03T04:52:04;100582.78;;;20.15;57.55
42411;BME280;28056;51.112;0.984;2022-08-03T04:54:39;100586.79;;;19.44;59.30
42411;BME280;28056;51.112;0.984;2022-08-03T04:57:06;100585.25;;;19.22;60.01
42411;BME280;28056;51.112;0.984;2022-08-03T04:59:34;100586.55;;;19.50;58.97
42411;BME280;28056;51.112;0.984;2022-08-03T05:02:01;100591.39;;;19.54;58.83
42411;BME280;28056;51.112;0.984;2022-08-03T05:04:29;100589.87;;;19.20;59.84
42411;BME280;28056;51.112;0.984;2022-08-03T05:06:56;100588.67;;;19.90;58.70
42411;BME280;28056;51.112;0.984;2022-08-03T05:09:24;100591.09;;;19.35;58.77
42411;BME280;28056;51.112;0.984;2022-08-03T05:11:51;100593.36;;;19.38;60.11
42411;BME280;28056;51.112;0.984;2022-08-03T05:14:19;100593.67;;;19.82;57.83
42411;BME280;28056;51.112;0.984;2022-08-03T05:16:46;100596.44;;;19.79;58.88
42411;BME280;28056;51.112;0.984;2022-08-03T05:19:14;100599.75;;;19.42;59.00
42411;BME280;28056;51.112;0.984;2022-08-03T05:21:41;100598.07;;;19.04;60.28
42411;BME280;28056;51.112;0.984;2022-08-03T05:24:09;100600.06;;;19.48;58.93
42411;BME280;28056;51.112;0.984;2022-08-03T05:26:36;100600.98;;;19.27;59.81
42411;BME280;28056;51.112;0.984;2022-08-03T05:29:04;100603.22;;;19.58;59.78
42411;BME280;28056;51.112;0.984;2022-08-03T05:31:31;100604.42;;;19.14;60.53
42411;BME280;28056;51.112;0.984;2022-08-03T05:33:59;100605.23;;;19.37;60.79
42411;BME280;28056;51.112;0.984;2022-08-03T05:36:26;100610.34;;;18.75;61.39
42411;BME280;28056;51.112;0.984;2022-08-03T05:38:54;100611.52;;;19.23;60.23
42411;BME280;28056;51.112;0.984;2022-08-03T05:41:21;100614.75;;;19.38;59.41
42411;BME280;28056;51.112;0.984;2022-08-03T05:43:49;100616.73;;;19.21;60.57
42411;BME280;28056;51.112;0.984;2022-08-03T05:46:17;100618.90;;;18.56;61.94
42411;BME280;28056;51.112;0.984;2022-08-03T05:48:45;100622.91;;;18.33;62.15
42411;BME280;28056;51.112;0.984;2022-08-03T05:51:13;100621.77;;;18.93;60.90
42411;BME280;28056;51.112;0.984;2022-08-03T05:53:41;100619.92;;;18.85;61.55
42411;BME280;28056;51.112;0.984;2022-08-03T05:56:10;100623.98;;;19.23;60.15
42411;BME280;28056;51.112;0.984;2022-08-03T05:58:37;100624.05;;;19.77;59.16
42411;BME280;28056;51.112;0.984;2022-08-03T06:01:05;100624.29;;;19.81;58.39
42411;BME280;28056;51.112;0.984;2022-08-03T06:03:32;100623.22;;;19.38;59.01
42411;BME280;28056;51.112;0.984;2022-08-03T06:05:59;100624.47;;;18.99;60.66
42411;BME280;28056;51.112;0.984;2022-08-03T06:08:27;100621.84;;;17.80;63.86
42411;BME280;28056;51.112;0.984;2022-08-03T06:10:55;100626.44;;;18.70;61.26
42411;BME280;28056;51.112;0.984;2022-08-03T06:13:22;100627.00;;;18.84;61.05
42411;BME280;28056;51.112;0.984;2022-08-03T06:15:50;100627.35;;;19.15;59.93
42411;BME280;28056;51.112;0.984;2022-08-03T06:18:17;100621.02;;;19.11;60.41
42411;BME280;28056;51.112;0.984;2022-08-03T06:20:44;100620.27;;;19.17;60.43
42411;BME280;28056;51.112;0.984;2022-08-03T06:23:12;100620.01;;;19.01;60.19
42411;BME280;28056;51.112;0.984;2022-08-03T06:25:39;100627.15;;;18.41;61.64
42411;BME280;28056;51.112;0.984;2022-08-03T06:28:07;100628.09;;;19.59;59.52
42411;BME280;28056;51.112;0.984;2022-08-03T06:30:34;100624.88;;;19.26;59.63
42411;BME280;28056;51.112;0.984;2022-08-03T06:33:02;100623.28;;;19.33;58.99
42411;BME280;28056;51.112;0.984;2022-08-03T06:35:29;100629.69;;;18.91;60.51
42411;BME280;28056;51.112;0.984;2022-08-03T06:37:56;100634.37;;;18.59;61.00
42411;BME280;28056;51.112;0.984;2022-08-03T06:40:24;100632.34;;;18.77;61.09
42411;BME280;28056;51.112;0.984;2022-08-03T06:42:52;100630.16;;;19.67;58.33
42411;BME280;28056;51.112;0.984;2022-08-03T06:45:20;100629.28;;;18.40;61.31
42411;BME280;28056;51.112;0.984;2022-08-03T06:47:47;100628.12;;;19.70;59.45
42411;BME280;28056;51.112;0.984;2022-08-03T06:50:26;100624.57;;;19.63;58.65
42411;BME280;28056;51.112;0.984;2022-08-03T06:52:53;100625.31;;;19.69;58.59
42411;BME280;28056;51.112;0.984;2022-08-03T06:55:21;100623.95;;;19.52;58.40
42411;BME280;28056;51.112;0.984;2022-08-03T06:57:48;100629.35;;;20.13;57.64
42411;BME280;28056;51.112;0.984;2022-08-03T07:00:16;100628.36;;;19.03;59.82
42411;BME280;28056;51.112;0.984;2022-08-03T07:02:44;100631.33;;;19.74;58.78
42411;BME280;28056;51.112;0.984;2022-08-03T07:05:11;100630.35;;;19.01;59.89
42411;BME280;28056;51.112;0.984;2022-08-03T07:07:38;100629.39;;;19.84;58.63
42411;BME280;28056;51.112;0.984;2022-08-03T07:10:07;100633.93;;;20.11;57.61
42411;BME280;28056;51.112;0.984;2022-08-03T07:12:36;100632.51;;;19.41;58.58
42411;BME280;28056;51.112;0.984;2022-08-03T07:15:05;100630.18;;;19.36;59.51
42411;BME280;28056;51.112;0.984;2022-08-03T07:17:34;100633.60;;;20.04;57.58
42411;BME280;28056;51.112;0.984;2022-08-03T07:20:05;100634.45;;;19.61;58.97
42411;BME280;28056;51.112;0.984;2022-08-03T07:22:33;100633.21;;;19.66;58.33
42411;BME280;28056;51.112;0.984;2022-08-03T07:25:01;100634.55;;;19.13;59.81
42411;BME280;28056;51.112;0.984;2022-08-03T07:27:30;100632.96;;;19.90;57.50
42411;BME280;28056;51.112;0.984;2022-08-03T07:29:57;100631.92;;;20.09;57.72
42411;BME280;28056;51.112;0.984;2022-08-03T07:32:26;100635.40;;;19.93;58.09
42411;BME280;28056;51.112;0.984;2022-08-03T07:34:54;100632.77;;;20.53;55.76
42411;BME280;28056;51.112;0.984;2022-08-03T07:37:21;100628.78;;;20.25;56.76
42411;BME280;28056;51.112;0.984;2022-08-03T07:39:48;100626.22;;;20.33;57.21
42411;BME280;28056;51.112;0.984;2022-08-03T07:42:16;100626.30;;;20.69;56.14
42411;BME280;28056;51.112;0.984;2022-08-03T07:44:43;100633.50;;;20.05;57.98
42411;BME280;28056;51.112;0.984;2022-08-03T07:47:11;100628.58;;;20.76;56.02
42411;BME280;28056;51.112;0.984;2022-08-03T07:49:39;100633.43;;;20.81;56.35
42411;BME280;28056;51.112;0.984;2022-08-03T07:52:07;100631.32;;;21.02;54.57
42411;BME280;28056;51.112;0.984;2022-08-03T07:54:34;100628.23;;;20.81;55.35
42411;BME280;28056;51.112;0.984;2022-08-03T07:57:02;100629.32;;;21.42;55.71
42411;BME280;28056;51.112;0.984;2022-08-03T07:59:29;100625.00;;;21.87;53.63
42411;BME280;28056;51.112;0.984;2022-08-03T08:01:57;100621.90;;;21.82;53.36
42411;BME280;28056;51.112;0.984;2022-08-03T08:04:24;100626.61;;;20.59;54.47
42411;BME280;28056;51.112;0.984;2022-08-03T08:06:52;100625.43;;;21.72;53.90
42411;BME280;28056;51.112;0.984;2022-08-03T08:09:19;100629.56;;;21.21;54.03
42411;BME280;28056;51.112;0.984;2022-08-03T08:11:47;100622.74;;;22.09;52.24
42411;BME280;28056;51.112;0.984;2022-08-03T08:14:15;100626.28;;;22.32;52.05
42411;BME280;28056;51.112;0.984;2022-08-03T08:16:43;100626.68;;;21.88;52.10
42411;BME280;28056;51.112;0.984;2022-08-03T08:19:10;100631.86;;;22.65;51.02
42411;BME280;28056;51.112;0.984;2022-08-03T08:21:38;100633.70;;;22.48;51.30
42411;BME280;28056;51.112;0.984;2022-08-03T08:24:06;100635.37;;;22.38;50.55
42411;BME280;28056;51.112;0.984;2022-08-03T08:26:34;100635.53;;;22.50;50.43
42411;BME280;28056;51.112;0.984;2022-08-03T08:29:01;100637.02;;;22.43;51.13
42411;BME280;28056;51.112;0.984;2022-08-03T08:31:28;100644.58;;;23.08;49.54
42411;BME280;28056;51.112;0.984;2022-08-03T08:33:56;100639.65;;;22.72;49.23
42411;BME280;28056;51.112;0.984;2022-08-03T08:36:23;100639.52;;;23.68;47.57
42411;BME280;28056;51.112;0.984;2022-08-03T08:38:51;100634.21;;;23.52;47.54
42411;BME280;28056;51.112;0.984;2022-08-03T08:41:18;100634.21;;;22.95;47.86
42411;BME280;28056;51.112;0.984;2022-08-03T08:43:46;100635.41;;;23.63;46.86
42411;BME280;28056;51.112;0.984;2022-08-03T08:46:14;100632.77;;;23.40;47.07
42411;BME280;28056;51.112;0.984;2022-08-03T08:48:43;100634.98;;;23.74;46.58
42411;BME280;28056;51.112;0.984;2022-08-03T08:51:12;100635.33;;;22.70;46.93
42411;BME280;28056;51.112;0.984;2022-08-03T08:53:44;100637.28;;;23.07;46.77
42411;BME280;28056;51.112;0.984;2022-08-03T08:56:14;100634.47;;;23.73;46.20
42411;BME280;28056;51.112;0.984;2022-08-03T08:58:46;100634.80;;;23.30;47.84
42411;BME280;28056;51.112;0.984;2022-08-03T09:01:17;100638.00;;;23.62;46.95
42411;BME280;28056;51.112;0.984;2022-08-03T09:03:45;100633.33;;;23.97;45.52
42411;BME280;28056;51.112;0.984;2022-08-03T09:06:12;100632.44;;;23.97;45.82
42411;BME280;28056;51.112;0.984;2022-08-03T09:08:39;100630.58;;;24.22;45.02
42411;BME280;28056;51.112;0.984;2022-08-03T09:11:07;100633.98;;;24.35;45.35
42411;BME280;28056;51.112;0.984;2022-08-03T09:13:35;100635.51;;;24.20;46.67
42411;BME280;28056;51.112;0.984;2022-08-03T09:16:09;100633.23;;;25.56;43.64
42411;BME280;28056;51.112;0.984;2022-08-03T09:18:36;100632.05;;;25.55;42.50
42411;BME280;28056;51.112;0.984;2022-08-03T09:21:21;100628.58;;;25.11;44.30
42411;BME280;28056;51.112;0.984;2022-08-03T09:23:52;100636.21;;;25.72;43.14
42411;BME280;28056;51.112;0.984;2022-08-03T09:26:21;100635.49;;;25.80;44.31
42411;BME280;28056;51.112;0.984;2022-08-03T09:28:54;100641.44;;;24.71;45.46
42411;BME280;28056;51.112;0.984;2022-08-03T09:31:34;100638.88;;;25.26;42.68
42411;BME280;28056;51.112;0.984;2022-08-03T09:34:03;100640.67;;;25.53;42.57
42411;BME280;28056;51.112;0.984;2022-08-03T09:36:36;100638.32;;;25.54;42.65
42411;BME280;28056;51.112;0.984;2022-08-03T09:39:05;100641.52;;;24.74;42.72
42411;BME280;28056;51.112;0.984;2022-08-03T09:41:33;100644.23;;;25.36;42.03
42411;BME280;28056;51.112;0.984;2022-08-03T09:44:00;100640.28;;;25.16;43.04
42411;BME280;28056;51.112;0.984;2022-08-03T09:46:28;100637.50;;;24.47;44.59
42411;BME280;28056;51.112;0.984;2022-08-03T09:49:08;100638.68;;;25.43;43.19
42411;BME280;28056;51.112;0.984;2022-08-03T09:51:35;100630.39;;;25.09;43.35
42411;BME280;28056;51.112;0.984;2022-08-03T09:54:03;100632.98;;;25.99;42.06
42411;BME280;28056;51.112;0.984;2022-08-03T09:56:40;100628.00;;;26.30;43.97
42411;BME280;28056;51.112;0.984;2022-08-03T09:59:09;100618.49;;;25.43;44.08
42411;BME280;28056;51.112;0.984;2022-08-03T10:01:38;100618.42;;;24.99;42.88
42411;BME280;28056;51.112;0.984;2022-08-03T10:04:05;100620.26;;;24.10;45.54
42411;BME280;28056;51.112;0.984;2022-08-03T10:06:32;100617.19;;;26.35;42.49
42411;BME280;28056;51.112;0.984;2022-08-03T10:09:09;100611.87;;;25.49;43.20
42411;BME280;28056;51.112;0.984;2022-08-03T10:11:37;100613.89;;;25.06;44.84
42411;BME280;28056;51.112;0.984;2022-08-03T10:14:06;100610.07;;;26.11;42.47
42411;BME280;28056;51.112;0.984;2022-08-03T10:16:37;100605.88;;;26.77;41.66
42411;BME280;28056;51.112;0.984;2022-08-03T10:19:06;100603.78;;;26.28;42.46
42411;BME280;28056;51.112;0.984;2022-08-03T10:21:37;100604.32;;;26.28;42.67
42411;BME280;28056;51.112;0.984;2022-08-03T10:24:08;100601.45;;;26.11;43.30
42411;BME280;28056;51.112;0.984;2022-08-03T10:26:38;100601.44;;;25.80;42.65
42411;BME280;28056;51.112;0.984;2022-08-03T10:29:10;100602.72;;;26.81;42.29
42411;BME280;28056;51.112;0.984;2022-08-03T10:31:39;100595.74;;;26.77;41.63
42411;BME280;28056;51.112;0.984;2022-08-03T10:34:16;100600.91;;;27.26;40.29
42411;BME280;28056;51.112;0.984;2022-08-03T10:36:45;100597.84;;;26.55;40.71
42411;BME280;28056;51.112;0.984;2022-08-03T10:39:18;100607.07;;;26.22;41.92
42411;BME280;28056;51.112;0.984;2022-08-03T10:41:48;100609.03;;;26.26;41.33
42411;BME280;28056;51.112;0.984;2022-08-03T10:44:19;100602.09;;;25.91;42.46
42411;BME280;28056;51.112;0.984;2022-08-03T10:46:47;100609.61;;;26.62;41.32
42411;BME280;28056;51.112;0.984;2022-08-03T10:49:16;100607.18;;;26.54;40.69
42411;BME280;28056;51.112;0.984;2022-08-03T10:51:46;100604.11;;;26.68;41.57
42411;BME280;28056;51.112;0.984;2022-08-03T10:54:46;100601.47;;;26.39;40.94
42411;BME280;28056;51.112;0.984;2022-08-03T10:57:43;100601.33;;;25.57;42.18
42411;BME280;28056;51.112;0.984;2022-08-03T11:00:12;100599.02;;;24.72;43.96
42411;BME280;28056;51.112;0.984;2022-08-03T11:03:13;100594.70;;;25.68;43.01
42411;BME280;28056;51.112;0.984;2022-08-03T11:05:42;100597.90;;;27.56;41.09
42411;BME280;28056;51.112;0.984;2022-08-03T11:08:41;100602.58;;;25.91;43.37
42411;BME280;28056;51.112;0.984;2022-08-03T11:11:25;100594.22;;;26.96;40.63
42411;BME280;28056;51.112;0.984;2022-08-03T11:13:59;100601.71;;;26.95;41.11
42411;BME280;28056;51.112;0.984;2022-08-03T11:16:27;100594.90;;;26.08;42.07
42411;BME280;28056;51.112;0.984;2022-08-03T11:18:56;100599.06;;;24.45;44.64
42411;BME280;28056;51.112;0.984;2022-08-03T11:21:52;100602.05;;;25.94;42.93
42411;BME280;28056;51.112;0.984;2022-08-03T11:25:24;100596.28;;;25.06;42.93
42411;BME280;28056;51.112;0.984;2022-08-03T11:28:24;100602.90;;;26.89;43.83
42411;BME280;28056;51.112;0.984;2022-08-03T11:30:51;100595.55;;;26.19;42.49
42411;BME280;28056;51.112;0.984;2022-08-03T11:33:28;100596.93;;;26.18;41.32
42411;BME280;28056;51.112;0.984;2022-08-03T11:36:00;100591.36;;;26.39;41.59
42411;BME280;28056;51.112;0.984;2022-08-03T11:38:28;100593.14;;;26.35;43.32
42411;BME280;28056;51.112;0.984;2022-08-03T11:40:55;100590.88;;;26.16;41.58
42411;BME280;28056;51.112;0.984;2022-08-03T11:43:55;100586.75;;;27.30;40.70
42411;BME280;28056;51.112;0.984;2022-08-03T11:46:23;100589.80;;;25.58;42.09
42411;BME280;28056;51.112;0.984;2022-08-03T11:48:50;100589.59;;;26.05;41.42
42411;BME280;28056;51.112;0.984;2022-08-03T11:51:21;100592.20;;;26.96;41.67
42411;BME280;28056;51.112;0.984;2022-08-03T11:53:52;100579.65;;;27.19;40.42
42411;BME280;28056;51.112;0.984;2022-08-03T11:56:20;100577.76;;;26.65;41.27
42411;BME280;28056;51.112;0.984;2022-08-03T11:58:48;100580.96;;;26.32;40.81
42411;BME280;28056;51.112;0.984;2022-08-03T12:01:15;100580.43;;;26.32;41.54
42411;BME280;28056;51.112;0.984;2022-08-03T12:03:43;100578.59;;;25.99;42.54
42411;BME280;28056;51.112;0.984;2022-08-03T12:06:11;100579.35;;;26.98;41.04
42411;BME280;28056;51.112;0.984;2022-08-03T12:08:40;100582.90;;;26.53;41.59
42411;BME280;28056;51.112;0.984;2022-08-03T12:11:11;100586.26;;;27.87;37.82
42411;BME280;28056;51.112;0.984;2022-08-03T12:13:41;100587.99;;;29.12;37.29
42411;BME280;28056;51.112;0.984;2022-08-03T12:16:09;100582.25;;;28.22;39.52
42411;BME280;28056;51.112;0.984;2022-08-03T12:18:37;100583.45;;;28.76;37.06
42411;BME280;28056;51.112;0.984;2022-08-03T12:21:06;100577.44;;;27.27;39.58
42411;BME280;28056;51.112;0.984;2022-08-03T12:23:34;100589.48;;;27.85;39.40
42411;BME280;28056;51.112;0.984;2022-08-03T12:26:03;100583.15;;;29.38;36.81
42411;BME280;28056;51.112;0.984;2022-08-03T12:28:32;100584.38;;;28.85;36.22
42411;BME280;28056;51.112;0.984;2022-08-03T12:31:02;100580.58;;;27.96;38.55
42411;BME280;28056;51.112;0.984;2022-08-03T12:33:30;100575.87;;;28.36;36.65
42411;BME280;28056;51.112;0.984;2022-08-03T12:36:06;100581.50;;;27.37;39.48
42411;BME280;28056;51.112;0.984;2022-08-03T12:38:35;100577.83;;;28.47;37.12
42411;BME280;28056;51.112;0.984;2022-08-03T12:41:07;100574.77;;;27.68;38.76
42411;BME280;28056;51.112;0.984;2022-08-03T12:43:35;100576.68;;;29.06;36.91
42411;BME280;28056;51.112;0.984;2022-08-03T12:46:12;100579.30;;;28.65;38.52
42411;BME280;28056;51.112;0.984;2022-08-03T12:49:13;100584.62;;;28.57;38.62
42411;BME280;28056;51.112;0.984;2022-08-03T12:51:56;100586.94;;;29.23;36.23
42411;BME280;28056;51.112;0.984;2022-08-03T12:54:25;100585.69;;;28.31;37.37
42411;BME280;28056;51.112;0.984;2022-08-03T12:56:57;100588.97;;;28.90;39.23
42411;BME280;28056;51.112;0.984;2022-08-03T12:59:25;100578.66;;;30.23;37.41
42411;BME280;28056;51.112;0.984;2022-08-03T13:01:53;100581.66;;;29.98;35.82
42411;BME280;28056;51.112;0.984;2022-08-03T13:04:29;100580.04;;;30.57;34.46
42411;BME280;28056;51.112;0.984;2022-08-03T13:06:58;100581.77;;;30.27;34.14